Lexa, Arkansas
Current Conditions -  °F | °C
As of 3:15 PM on Sunday 23 Nov 2014 (Local Time) from KUTA Reporting Station
Moderate Rain Moderate Rain  
Wind Chill: 63°   Ceiling: 2100
Heat Index: 63°   Visibility: 7mi
Dew Point: 61°   Wind: 5mph
Humidity: 94%   Direction: 200°SSW
Pressure: 29.34"   Gusts: NA
Location:  34.6°N, 90.75°W
Report Text: KUTA 232115Z AUTO 20004KT 7SM RA SCT005 BKN021 OVC035 17/16 A2934 RMK AO2
Loading
Personal Weather Stations






























Interactive Weather Map New forecast layout! Learn more

10-Day Weather Forecast

Advertisements
Track Severe Weather on mobile